sensor_id;sensor_type;location;lat;lon;timestamp;P1;durP1;ratioP1;P2;durP2;ratioP2
40501;SDS011;29631;49.168;9.848;2023-05-10T00:01:47;0.77;;;0.77;;
40501;SDS011;29631;49.168;9.848;2023-05-10T00:04:13;1.13;;;0.90;;
40501;SDS011;29631;49.168;9.848;2023-05-10T00:06:39;1.05;;;1.02;;
40501;SDS011;29631;49.168;9.848;2023-05-10T00:09:05;0.95;;;0.95;;
40501;SDS011;29631;49.168;9.848;2023-05-10T00:11:31;0.70;;;0.70;;
40501;SDS011;29631;49.168;9.848;2023-05-10T00:13:57;0.90;;;0.90;;
40501;SDS011;29631;49.168;9.848;2023-05-10T00:16:23;0.60;;;0.60;;
40501;SDS011;29631;49.168;9.848;2023-05-10T00:18:48;0.90;;;0.90;;
40501;SDS011;29631;49.168;9.848;2023-05-10T00:21:14;0.70;;;0.70;;
40501;SDS011;29631;49.168;9.848;2023-05-10T00:23:40;1.00;;;1.00;;
40501;SDS011;29631;49.168;9.848;2023-05-10T00:26:06;0.70;;;0.70;;
40501;SDS011;29631;49.168;9.848;2023-05-10T00:28:31;0.80;;;0.80;;
40501;SDS011;29631;49.168;9.848;2023-05-10T00:30:57;0.70;;;0.70;;
40501;SDS011;29631;49.168;9.848;2023-05-10T00:33:23;1.10;;;0.70;;
40501;SDS011;29631;49.168;9.848;2023-05-10T00:35:48;0.88;;;0.88;;
40501;SDS011;29631;49.168;9.848;2023-05-10T00:38:14;0.70;;;0.70;;
40501;SDS011;29631;49.168;9.848;2023-05-10T00:40:40;0.80;;;0.80;;
40501;SDS011;29631;49.168;9.848;2023-05-10T00:43:06;0.80;;;0.80;;
40501;SDS011;29631;49.168;9.848;2023-05-10T00:45:32;0.80;;;0.80;;
40501;SDS011;29631;49.168;9.848;2023-05-10T00:47:59;1.65;;;0.70;;
40501;SDS011;29631;49.168;9.848;2023-05-10T00:50:27;0.88;;;0.88;;
40501;SDS011;29631;49.168;9.848;2023-05-10T00:52:53;1.15;;;0.80;;
40501;SDS011;29631;49.168;9.848;2023-05-10T00:55:19;0.50;;;0.50;;
40501;SDS011;29631;49.168;9.848;2023-05-10T00:57:45;0.98;;;0.82;;
40501;SDS011;29631;49.168;9.848;2023-05-10T01:00:12;0.68;;;0.68;;
40501;SDS011;29631;49.168;9.848;2023-05-10T01:02:42;0.60;;;0.60;;
40501;SDS011;29631;49.168;9.848;2023-05-10T01:05:10;0.82;;;0.82;;
40501;SDS011;29631;49.168;9.848;2023-05-10T01:07:36;0.60;;;0.60;;
40501;SDS011;29631;49.168;9.848;2023-05-10T01:10:02;0.60;;;0.60;;
40501;SDS011;29631;49.168;9.848;2023-05-10T01:12:29;0.47;;;0.47;;
40501;SDS011;29631;49.168;9.848;2023-05-10T01:14:55;0.82;;;0.50;;
40501;SDS011;29631;49.168;9.848;2023-05-10T01:17:22;2.38;;;0.80;;
40501;SDS011;29631;49.168;9.848;2023-05-10T01:19:49;0.85;;;0.85;;
40501;SDS011;29631;49.168;9.848;2023-05-10T01:25:22;0.57;;;0.57;;
40501;SDS011;29631;49.168;9.848;2023-05-10T01:31:03;0.30;;;0.30;;
40501;SDS011;29631;49.168;9.848;2023-05-10T01:33:41;0.40;;;0.40;;
40501;SDS011;29631;49.168;9.848;2023-05-10T01:41:51;0.50;;;0.50;;
40501;SDS011;29631;49.168;9.848;2023-05-10T01:44:34;0.35;;;0.35;;
40501;SDS011;29631;49.168;9.848;2023-05-10T01:47:25;2.05;;;0.60;;
40501;SDS011;29631;49.168;9.848;2023-05-10T01:50:29;0.40;;;0.40;;
40501;SDS011;29631;49.168;9.848;2023-05-10T01:52:56;0.52;;;0.52;;
40501;SDS011;29631;49.168;9.848;2023-05-10T01:55:25;0.50;;;0.50;;
40501;SDS011;29631;49.168;9.848;2023-05-10T01:58:02;0.50;;;0.50;;
40501;SDS011;29631;49.168;9.848;2023-05-10T02:00:34;0.70;;;0.40;;
40501;SDS011;29631;49.168;9.848;2023-05-10T02:03:01;0.47;;;0.47;;
40501;SDS011;29631;49.168;9.848;2023-05-10T02:05:32;0.32;;;0.32;;
40501;SDS011;29631;49.168;9.848;2023-05-10T02:07:59;0.77;;;0.40;;
40501;SDS011;29631;49.168;9.848;2023-05-10T02:10:27;0.38;;;0.38;;
40501;SDS011;29631;49.168;9.848;2023-05-10T02:12:54;0.40;;;0.40;;
40501;SDS011;29631;49.168;9.848;2023-05-10T02:15:23;0.40;;;0.40;;
40501;SDS011;29631;49.168;9.848;2023-05-10T02:17:50;0.40;;;0.40;;
40501;SDS011;29631;49.168;9.848;2023-05-10T02:20:19;0.40;;;0.40;;
40501;SDS011;29631;49.168;9.848;2023-05-10T02:22:47;0.40;;;0.40;;
40501;SDS011;29631;49.168;9.848;2023-05-10T02:25:16;0.47;;;0.47;;
40501;SDS011;29631;49.168;9.848;2023-05-10T02:27:45;0.50;;;0.50;;
40501;SDS011;29631;49.168;9.848;2023-05-10T02:30:12;0.50;;;0.50;;
40501;SDS011;29631;49.168;9.848;2023-05-10T02:32:39;0.50;;;0.50;;
40501;SDS011;29631;49.168;9.848;2023-05-10T02:35:06;0.60;;;0.60;;
40501;SDS011;29631;49.168;9.848;2023-05-10T02:37:35;0.50;;;0.50;;
40501;SDS011;29631;49.168;9.848;2023-05-10T02:40:04;0.50;;;0.50;;
40501;SDS011;29631;49.168;9.848;2023-05-10T02:42:32;2.97;;;1.52;;
40501;SDS011;29631;49.168;9.848;2023-05-10T02:45:04;0.50;;;0.50;;
40501;SDS011;29631;49.168;9.848;2023-05-10T02:47:36;0.55;;;0.55;;
40501;SDS011;29631;49.168;9.848;2023-05-10T02:50:01;0.60;;;0.60;;
40501;SDS011;29631;49.168;9.848;2023-05-10T02:52:29;0.47;;;0.47;;
40501;SDS011;29631;49.168;9.848;2023-05-10T02:55:08;0.50;;;0.50;;
40501;SDS011;29631;49.168;9.848;2023-05-10T02:57:38;0.40;;;0.40;;
40501;SDS011;29631;49.168;9.848;2023-05-10T03:00:11;2.28;;;0.63;;
40501;SDS011;29631;49.168;9.848;2023-05-10T03:02:37;1.27;;;0.60;;
40501;SDS011;29631;49.168;9.848;2023-05-10T03:05:03;0.63;;;0.60;;
40501;SDS011;29631;49.168;9.848;2023-05-10T03:07:29;0.57;;;0.57;;
40501;SDS011;29631;49.168;9.848;2023-05-10T03:09:55;0.50;;;0.50;;
40501;SDS011;29631;49.168;9.848;2023-05-10T03:20:57;0.50;;;0.50;;
40501;SDS011;29631;49.168;9.848;2023-05-10T03:23:30;0.73;;;0.45;;
40501;SDS011;29631;49.168;9.848;2023-05-10T03:26:17;0.50;;;0.50;;
40501;SDS011;29631;49.168;9.848;2023-05-10T03:28:48;0.50;;;0.50;;
40501;SDS011;29631;49.168;9.848;2023-05-10T03:31:15;0.47;;;0.47;;
40501;SDS011;29631;49.168;9.848;2023-05-10T03:33:49;0.70;;;0.70;;
40501;SDS011;29631;49.168;9.848;2023-05-10T03:36:16;0.70;;;0.70;;
40501;SDS011;29631;49.168;9.848;2023-05-10T03:38:43;0.60;;;0.60;;
40501;SDS011;29631;49.168;9.848;2023-05-10T03:41:10;3.08;;;0.70;;
40501;SDS011;29631;49.168;9.848;2023-05-10T03:43:36;0.70;;;0.70;;
40501;SDS011;29631;49.168;9.848;2023-05-10T03:46:02;0.95;;;0.88;;
40501;SDS011;29631;49.168;9.848;2023-05-10T03:48:29;0.80;;;0.80;;
40501;SDS011;29631;49.168;9.848;2023-05-10T03:50:55;0.60;;;0.60;;
40501;SDS011;29631;49.168;9.848;2023-05-10T03:53:20;0.63;;;0.63;;
40501;SDS011;29631;49.168;9.848;2023-05-10T03:55:47;1.70;;;0.90;;
40501;SDS011;29631;49.168;9.848;2023-05-10T03:58:13;0.70;;;0.70;;
40501;SDS011;29631;49.168;9.848;2023-05-10T04:00:40;1.05;;;0.80;;
40501;SDS011;29631;49.168;9.848;2023-05-10T04:03:10;0.55;;;0.55;;
40501;SDS011;29631;49.168;9.848;2023-05-10T04:05:37;0.60;;;0.60;;
40501;SDS011;29631;49.168;9.848;2023-05-10T04:08:03;0.68;;;0.68;;
40501;SDS011;29631;49.168;9.848;2023-05-10T04:10:29;0.68;;;0.68;;
40501;SDS011;29631;49.168;9.848;2023-05-10T04:12:55;0.77;;;0.70;;
40501;SDS011;29631;49.168;9.848;2023-05-10T04:15:21;1.02;;;0.77;;
40501;SDS011;29631;49.168;9.848;2023-05-10T04:17:47;0.50;;;0.50;;
40501;SDS011;29631;49.168;9.848;2023-05-10T04:20:13;0.68;;;0.68;;
40501;SDS011;29631;49.168;9.848;2023-05-10T04:22:39;0.60;;;0.60;;
40501;SDS011;29631;49.168;9.848;2023-05-10T04:25:05;0.70;;;0.70;;
40501;SDS011;29631;49.168;9.848;2023-05-10T04:27:32;1.30;;;0.60;;
40501;SDS011;29631;49.168;9.848;2023-05-10T04:29:58;1.20;;;0.70;;
40501;SDS011;29631;49.168;9.848;2023-05-10T04:32:23;0.70;;;0.70;;
40501;SDS011;29631;49.168;9.848;2023-05-10T04:34:49;0.88;;;0.70;;
40501;SDS011;29631;49.168;9.848;2023-05-10T04:37:18;0.50;;;0.50;;
40501;SDS011;29631;49.168;9.848;2023-05-10T04:39:44;1.55;;;0.88;;
40501;SDS011;29631;49.168;9.848;2023-05-10T04:42:10;0.65;;;0.65;;
40501;SDS011;29631;49.168;9.848;2023-05-10T04:44:36;0.80;;;0.80;;
40501;SDS011;29631;49.168;9.848;2023-05-10T04:47:02;0.70;;;0.70;;
40501;SDS011;29631;49.168;9.848;2023-05-10T04:49:28;0.73;;;0.73;;
40501;SDS011;29631;49.168;9.848;2023-05-10T04:51:55;2.38;;;0.80;;
40501;SDS011;29631;49.168;9.848;2023-05-10T04:54:21;0.75;;;0.60;;
40501;SDS011;29631;49.168;9.848;2023-05-10T04:56:46;1.20;;;0.90;;
40501;SDS011;29631;49.168;9.848;2023-05-10T04:59:12;1.55;;;0.93;;
40501;SDS011;29631;49.168;9.848;2023-05-10T05:01:38;0.75;;;0.75;;
40501;SDS011;29631;49.168;9.848;2023-05-10T05:04:04;0.90;;;0.90;;
40501;SDS011;29631;49.168;9.848;2023-05-10T05:06:30;0.90;;;0.90;;
40501;SDS011;29631;49.168;9.848;2023-05-10T05:08:56;0.85;;;0.85;;
40501;SDS011;29631;49.168;9.848;2023-05-10T05:11:21;0.80;;;0.80;;
40501;SDS011;29631;49.168;9.848;2023-05-10T05:13:47;0.80;;;0.80;;
40501;SDS011;29631;49.168;9.848;2023-05-10T05:16:13;0.90;;;0.90;;
40501;SDS011;29631;49.168;9.848;2023-05-10T05:18:38;1.00;;;1.00;;
40501;SDS011;29631;49.168;9.848;2023-05-10T05:21:17;4.22;;;0.90;;
40501;SDS011;29631;49.168;9.848;2023-05-10T05:23:44;0.88;;;0.88;;
40501;SDS011;29631;49.168;9.848;2023-05-10T05:26:10;1.00;;;1.00;;
40501;SDS011;29631;49.168;9.848;2023-05-10T05:28:36;0.80;;;0.80;;
40501;SDS011;29631;49.168;9.848;2023-05-10T05:31:03;0.80;;;0.80;;
40501;SDS011;29631;49.168;9.848;2023-05-10T05:33:34;0.85;;;0.85;;
40501;SDS011;29631;49.168;9.848;2023-05-10T05:36:04;0.80;;;0.80;;
40501;SDS011;29631;49.168;9.848;2023-05-10T05:38:30;0.55;;;0.55;;
40501;SDS011;29631;49.168;9.848;2023-05-10T05:40:56;1.00;;;1.00;;
40501;SDS011;29631;49.168;9.848;2023-05-10T05:43:22;1.40;;;0.63;;
40501;SDS011;29631;49.168;9.848;2023-05-10T05:45:48;0.77;;;0.77;;
40501;SDS011;29631;49.168;9.848;2023-05-10T05:48:14;1.00;;;1.00;;
40501;SDS011;29631;49.168;9.848;2023-05-10T05:50:40;0.70;;;0.70;;
40501;SDS011;29631;49.168;9.848;2023-05-10T05:53:05;1.08;;;1.08;;
40501;SDS011;29631;49.168;9.848;2023-05-10T05:55:31;0.80;;;0.80;;
40501;SDS011;29631;49.168;9.848;2023-05-10T05:57:57;1.00;;;1.00;;
40501;SDS011;29631;49.168;9.848;2023-05-10T06:00:23;0.70;;;0.70;;
40501;SDS011;29631;49.168;9.848;2023-05-10T06:02:49;0.88;;;0.88;;
40501;SDS011;29631;49.168;9.848;2023-05-10T06:05:15;0.93;;;0.90;;
40501;SDS011;29631;49.168;9.848;2023-05-10T06:07:41;0.85;;;0.85;;
40501;SDS011;29631;49.168;9.848;2023-05-10T06:10:07;1.58;;;0.90;;
40501;SDS011;29631;49.168;9.848;2023-05-10T06:12:34;1.83;;;1.10;;
40501;SDS011;29631;49.168;9.848;2023-05-10T06:15:00;1.08;;;1.08;;
40501;SDS011;29631;49.168;9.848;2023-05-10T06:17:25;1.17;;;1.17;;
40501;SDS011;29631;49.168;9.848;2023-05-10T06:19:51;1.00;;;1.00;;
40501;SDS011;29631;49.168;9.848;2023-05-10T06:22:17;1.45;;;1.40;;
40501;SDS011;29631;49.168;9.848;2023-05-10T06:24:43;1.13;;;1.02;;
40501;SDS011;29631;49.168;9.848;2023-05-10T06:27:09;1.00;;;1.00;;
40501;SDS011;29631;49.168;9.848;2023-05-10T06:29:35;1.05;;;1.05;;
40501;SDS011;29631;49.168;9.848;2023-05-10T06:32:01;2.17;;;1.23;;
40501;SDS011;29631;49.168;9.848;2023-05-10T06:34:27;1.10;;;1.10;;
40501;SDS011;29631;49.168;9.848;2023-05-10T06:36:53;1.00;;;1.00;;
40501;SDS011;29631;49.168;9.848;2023-05-10T06:39:18;1.27;;;1.27;;
40501;SDS011;29631;49.168;9.848;2023-05-10T06:41:44;1.20;;;1.20;;
40501;SDS011;29631;49.168;9.848;2023-05-10T06:44:10;1.10;;;1.10;;
40501;SDS011;29631;49.168;9.848;2023-05-10T06:46:36;1.23;;;1.23;;
40501;SDS011;29631;49.168;9.848;2023-05-10T06:49:02;1.30;;;1.20;;
40501;SDS011;29631;49.168;9.848;2023-05-10T06:51:28;1.67;;;1.15;;
40501;SDS011;29631;49.168;9.848;2023-05-10T06:53:53;1.15;;;1.15;;
40501;SDS011;29631;49.168;9.848;2023-05-10T06:56:19;1.20;;;1.20;;
40501;SDS011;29631;49.168;9.848;2023-05-10T06:58:46;1.85;;;1.30;;
40501;SDS011;29631;49.168;9.848;2023-05-10T07:01:13;1.23;;;1.10;;
40501;SDS011;29631;49.168;9.848;2023-05-10T07:03:38;1.30;;;1.30;;
40501;SDS011;29631;49.168;9.848;2023-05-10T07:06:04;1.50;;;1.50;;
40501;SDS011;29631;49.168;9.848;2023-05-10T07:08:32;1.23;;;1.13;;
40501;SDS011;29631;49.168;9.848;2023-05-10T07:11:01;1.20;;;1.20;;
40501;SDS011;29631;49.168;9.848;2023-05-10T07:13:29;1.17;;;1.17;;
40501;SDS011;29631;49.168;9.848;2023-05-10T07:15:56;1.40;;;1.30;;
40501;SDS011;29631;49.168;9.848;2023-05-10T07:18:23;1.30;;;1.30;;
40501;SDS011;29631;49.168;9.848;2023-05-10T07:20:49;1.30;;;1.30;;
40501;SDS011;29631;49.168;9.848;2023-05-10T07:23:15;1.10;;;1.10;;
40501;SDS011;29631;49.168;9.848;2023-05-10T07:25:44;0.93;;;0.93;;
40501;SDS011;29631;49.168;9.848;2023-05-10T07:28:14;2.78;;;1.13;;
40501;SDS011;29631;49.168;9.848;2023-05-10T07:30:41;1.08;;;1.08;;
40501;SDS011;29631;49.168;9.848;2023-05-10T07:33:08;1.20;;;1.20;;
40501;SDS011;29631;49.168;9.848;2023-05-10T07:35:35;1.23;;;1.23;;
40501;SDS011;29631;49.168;9.848;2023-05-10T07:38:01;1.00;;;1.00;;
40501;SDS011;29631;49.168;9.848;2023-05-10T07:40:27;1.20;;;1.20;;
40501;SDS011;29631;49.168;9.848;2023-05-10T07:42:53;1.30;;;1.20;;
40501;SDS011;29631;49.168;9.848;2023-05-10T07:45:19;2.25;;;1.20;;
40501;SDS011;29631;49.168;9.848;2023-05-10T07:47:45;1.45;;;1.35;;
40501;SDS011;29631;49.168;9.848;2023-05-10T07:50:11;1.40;;;1.30;;
40501;SDS011;29631;49.168;9.848;2023-05-10T07:52:36;1.02;;;1.00;;
40501;SDS011;29631;49.168;9.848;2023-05-10T07:55:02;0.98;;;0.98;;
40501;SDS011;29631;49.168;9.848;2023-05-10T07:57:28;1.15;;;1.02;;
40501;SDS011;29631;49.168;9.848;2023-05-10T07:59:54;3.42;;;0.90;;
40501;SDS011;29631;49.168;9.848;2023-05-10T08:02:20;0.77;;;0.77;;
40501;SDS011;29631;49.168;9.848;2023-05-10T08:04:45;0.82;;;0.82;;
40501;SDS011;29631;49.168;9.848;2023-05-10T08:07:11;1.13;;;1.00;;
40501;SDS011;29631;49.168;9.848;2023-05-10T08:09:37;0.90;;;0.90;;
40501;SDS011;29631;49.168;9.848;2023-05-10T08:12:03;1.55;;;0.80;;
40501;SDS011;29631;49.168;9.848;2023-05-10T08:14:29;0.80;;;0.80;;
40501;SDS011;29631;49.168;9.848;2023-05-10T08:16:55;0.70;;;0.70;;
40501;SDS011;29631;49.168;9.848;2023-05-10T08:19:21;0.80;;;0.80;;
40501;SDS011;29631;49.168;9.848;2023-05-10T08:21:47;0.90;;;0.90;;
40501;SDS011;29631;49.168;9.848;2023-05-10T08:24:13;0.80;;;0.80;;
40501;SDS011;29631;49.168;9.848;2023-05-10T08:26:39;0.90;;;0.90;;
40501;SDS011;29631;49.168;9.848;2023-05-10T08:29:05;0.95;;;0.95;;
40501;SDS011;29631;49.168;9.848;2023-05-10T08:31:31;2.92;;;0.90;;
40501;SDS011;29631;49.168;9.848;2023-05-10T08:33:57;1.75;;;1.00;;
40501;SDS011;29631;49.168;9.848;2023-05-10T08:36:23;0.70;;;0.70;;
40501;SDS011;29631;49.168;9.848;2023-05-10T08:38:52;1.30;;;1.20;;
40501;SDS011;29631;49.168;9.848;2023-05-10T08:41:22;0.80;;;0.80;;
40501;SDS011;29631;49.168;9.848;2023-05-10T08:43:50;0.82;;;0.82;;
40501;SDS011;29631;49.168;9.848;2023-05-10T08:46:18;1.23;;;0.95;;
40501;SDS011;29631;49.168;9.848;2023-05-10T08:48:47;1.02;;;0.77;;
40501;SDS011;29631;49.168;9.848;2023-05-10T08:51:19;0.95;;;0.82;;
40501;SDS011;29631;49.168;9.848;2023-05-10T08:53:51;0.60;;;0.60;;
40501;SDS011;29631;49.168;9.848;2023-05-10T08:56:17;0.80;;;0.70;;
40501;SDS011;29631;49.168;9.848;2023-05-10T08:58:43;3.60;;;0.90;;
40501;SDS011;29631;49.168;9.848;2023-05-10T09:01:09;0.68;;;0.68;;
40501;SDS011;29631;49.168;9.848;2023-05-10T09:03:37;1.48;;;0.75;;
40501;SDS011;29631;49.168;9.848;2023-05-10T09:06:04;0.90;;;0.90;;
40501;SDS011;29631;49.168;9.848;2023-05-10T09:08:30;0.80;;;0.80;;
40501;SDS011;29631;49.168;9.848;2023-05-10T09:10:56;0.70;;;0.70;;
40501;SDS011;29631;49.168;9.848;2023-05-10T09:13:22;0.90;;;0.90;;
40501;SDS011;29631;49.168;9.848;2023-05-10T09:15:49;0.70;;;0.70;;
40501;SDS011;29631;49.168;9.848;2023-05-10T09:18:16;0.70;;;0.70;;
40501;SDS011;29631;49.168;9.848;2023-05-10T09:20:42;0.80;;;0.80;;
40501;SDS011;29631;49.168;9.848;2023-05-10T09:23:08;1.77;;;0.60;;
40501;SDS011;29631;49.168;9.848;2023-05-10T09:25:34;0.80;;;0.80;;
40501;SDS011;29631;49.168;9.848;2023-05-10T09:28:00;0.70;;;0.70;;
40501;SDS011;29631;49.168;9.848;2023-05-10T09:30:30;0.80;;;0.80;;
40501;SDS011;29631;49.168;9.848;2023-05-10T09:32:57;0.80;;;0.80;;
40501;SDS011;29631;49.168;9.848;2023-05-10T09:35:25;0.73;;;0.73;;
40501;SDS011;29631;49.168;9.848;2023-05-10T09:37:54;0.90;;;0.90;;
40501;SDS011;29631;49.168;9.848;2023-05-10T09:40:22;1.10;;;0.82;;
40501;SDS011;29631;49.168;9.848;2023-05-10T09:42:55;0.70;;;0.70;;
40501;SDS011;29631;49.168;9.848;2023-05-10T09:45:33;0.70;;;0.70;;
40501;SDS011;29631;49.168;9.848;2023-05-10T09:48:01;0.80;;;0.80;;
40501;SDS011;29631;49.168;9.848;2023-05-10T09:50:28;1.20;;;0.70;;
40501;SDS011;29631;49.168;9.848;2023-05-10T09:52:55;0.77;;;0.77;;
40501;SDS011;29631;49.168;9.848;2023-05-10T09:55:40;0.80;;;0.75;;
40501;SDS011;29631;49.168;9.848;2023-05-10T09:58:09;0.50;;;0.50;;
40501;SDS011;29631;49.168;9.848;2023-05-10T10:00:36;0.80;;;0.80;;
40501;SDS011;29631;49.168;9.848;2023-05-10T10:03:13;0.75;;;0.75;;
40501;SDS011;29631;49.168;9.848;2023-05-10T10:05:44;0.93;;;0.90;;
40501;SDS011;29631;49.168;9.848;2023-05-10T10:08:12;0.68;;;0.68;;
40501;SDS011;29631;49.168;9.848;2023-05-10T10:10:39;0.80;;;0.80;;
40501;SDS011;29631;49.168;9.848;2023-05-10T10:13:07;2.15;;;1.00;;
40501;SDS011;29631;49.168;9.848;2023-05-10T10:15:33;0.85;;;0.85;;
40501;SDS011;29631;49.168;9.848;2023-05-10T10:18:00;0.80;;;0.80;;
40501;SDS011;29631;49.168;9.848;2023-05-10T10:20:28;0.68;;;0.68;;
40501;SDS011;29631;49.168;9.848;2023-05-10T10:22:54;0.70;;;0.70;;
40501;SDS011;29631;49.168;9.848;2023-05-10T10:25:20;0.68;;;0.68;;
40501;SDS011;29631;49.168;9.848;2023-05-10T10:33:33;0.80;;;0.80;;
40501;SDS011;29631;49.168;9.848;2023-05-10T10:36:44;0.70;;;0.70;;
40501;SDS011;29631;49.168;9.848;2023-05-10T10:39:12;1.48;;;0.90;;
40501;SDS011;29631;49.168;9.848;2023-05-10T10:41:39;0.80;;;0.80;;
40501;SDS011;29631;49.168;9.848;2023-05-10T10:50:22;0.73;;;0.73;;
40501;SDS011;29631;49.168;9.848;2023-05-10T10:52:26;0.80;;;0.80;;
40501;SDS011;29631;49.168;9.848;2023-05-10T11:00:32;0.70;;;0.70;;
40501;SDS011;29631;49.168;9.848;2023-05-10T11:03:06;0.90;;;0.90;;
40501;SDS011;29631;49.168;9.848;2023-05-10T11:05:50;0.70;;;0.70;;
40501;SDS011;29631;49.168;9.848;2023-05-10T11:19:15;0.75;;;0.75;;
40501;SDS011;29631;49.168;9.848;2023-05-10T11:22:11;0.93;;;0.88;;
40501;SDS011;29631;49.168;9.848;2023-05-10T11:24:38;0.77;;;0.77;;
40501;SDS011;29631;49.168;9.848;2023-05-10T11:27:05;0.88;;;0.70;;
40501;SDS011;29631;49.168;9.848;2023-05-10T11:29:31;1.10;;;0.70;;
40501;SDS011;29631;49.168;9.848;2023-05-10T11:31:57;1.05;;;0.93;;
40501;SDS011;29631;49.168;9.848;2023-05-10T11:34:28;0.82;;;0.82;;
40501;SDS011;29631;49.168;9.848;2023-05-10T11:36:58;2.15;;;0.70;;
40501;SDS011;29631;49.168;9.848;2023-05-10T11:39:31;0.88;;;0.88;;
40501;SDS011;29631;49.168;9.848;2023-05-10T11:41:58;0.60;;;0.60;;
40501;SDS011;29631;49.168;9.848;2023-05-10T11:44:34;1.30;;;0.70;;
40501;SDS011;29631;49.168;9.848;2023-05-10T11:47:00;0.80;;;0.80;;
40501;SDS011;29631;49.168;9.848;2023-05-10T11:49:26;0.98;;;0.98;;
40501;SDS011;29631;49.168;9.848;2023-05-10T11:51:52;0.77;;;0.77;;
40501;SDS011;29631;49.168;9.848;2023-05-10T11:54:18;1.38;;;0.75;;
40501;SDS011;29631;49.168;9.848;2023-05-10T11:56:44;0.68;;;0.68;;
40501;SDS011;29631;49.168;9.848;2023-05-10T11:59:10;0.70;;;0.70;;
40501;SDS011;29631;49.168;9.848;2023-05-10T12:01:39;0.70;;;0.70;;
40501;SDS011;29631;49.168;9.848;2023-05-10T12:04:04;0.65;;;0.65;;
40501;SDS011;29631;49.168;9.848;2023-05-10T12:06:31;0.70;;;0.70;;
40501;SDS011;29631;49.168;9.848;2023-05-10T12:09:01;0.70;;;0.70;;
40501;SDS011;29631;49.168;9.848;2023-05-10T12:11:35;0.52;;;0.52;;
40501;SDS011;29631;49.168;9.848;2023-05-10T12:14:04;0.50;;;0.50;;
40501;SDS011;29631;49.168;9.848;2023-05-10T12:16:30;0.60;;;0.60;;
40501;SDS011;29631;49.168;9.848;2023-05-10T12:18:57;0.60;;;0.60;;
40501;SDS011;29631;49.168;9.848;2023-05-10T12:21:25;0.60;;;0.60;;
40501;SDS011;29631;49.168;9.848;2023-05-10T12:23:53;0.47;;;0.47;;
40501;SDS011;29631;49.168;9.848;2023-05-10T12:26:27;0.60;;;0.60;;
40501;SDS011;29631;49.168;9.848;2023-05-10T12:28:54;0.80;;;0.80;;
40501;SDS011;29631;49.168;9.848;2023-05-10T12:31:20;0.70;;;0.70;;
40501;SDS011;29631;49.168;9.848;2023-05-10T12:33:46;0.70;;;0.70;;
40501;SDS011;29631;49.168;9.848;2023-05-10T12:36:14;0.68;;;0.68;;
40501;SDS011;29631;49.168;9.848;2023-05-10T12:38:44;0.65;;;0.65;;
40501;SDS011;29631;49.168;9.848;2023-05-10T12:41:14;0.82;;;0.60;;
40501;SDS011;29631;49.168;9.848;2023-05-10T12:43:43;0.68;;;0.50;;
40501;SDS011;29631;49.168;9.848;2023-05-10T12:48:40;0.47;;;0.47;;
40501;SDS011;29631;49.168;9.848;2023-05-10T12:51:08;0.70;;;0.70;;
40501;SDS011;29631;49.168;9.848;2023-05-10T12:53:36;0.90;;;0.60;;
40501;SDS011;29631;49.168;9.848;2023-05-10T12:56:03;0.80;;;0.80;;
40501;SDS011;29631;49.168;9.848;2023-05-10T12:58:29;0.70;;;0.70;;
40501;SDS011;29631;49.168;9.848;2023-05-10T13:00:54;0.60;;;0.60;;
40501;SDS011;29631;49.168;9.848;2023-05-10T13:03:21;0.60;;;0.60;;
40501;SDS011;29631;49.168;9.848;2023-05-10T13:05:47;1.23;;;0.70;;
40501;SDS011;29631;49.168;9.848;2023-05-10T13:08:13;0.80;;;0.80;;
40501;SDS011;29631;49.168;9.848;2023-05-10T13:10:39;0.52;;;0.52;;
40501;SDS011;29631;49.168;9.848;2023-05-10T13:13:05;0.85;;;0.57;;
40501;SDS011;29631;49.168;9.848;2023-05-10T13:15:32;0.60;;;0.60;;
40501;SDS011;29631;49.168;9.848;2023-05-10T13:17:58;0.70;;;0.70;;
40501;SDS011;29631;49.168;9.848;2023-05-10T13:20:24;0.95;;;0.77;;
40501;SDS011;29631;49.168;9.848;2023-05-10T13:22:50;0.85;;;0.82;;
40501;SDS011;29631;49.168;9.848;2023-05-10T13:25:16;0.70;;;0.70;;
40501;SDS011;29631;49.168;9.848;2023-05-10T13:27:42;2.08;;;0.70;;
40501;SDS011;29631;49.168;9.848;2023-05-10T13:30:08;0.60;;;0.60;;
40501;SDS011;29631;49.168;9.848;2023-05-10T13:32:36;0.93;;;0.80;;
40501;SDS011;29631;49.168;9.848;2023-05-10T13:35:02;0.60;;;0.60;;
40501;SDS011;29631;49.168;9.848;2023-05-10T13:37:29;0.57;;;0.57;;
40501;SDS011;29631;49.168;9.848;2023-05-10T13:39:57;0.70;;;0.70;;
40501;SDS011;29631;49.168;9.848;2023-05-10T13:42:23;1.13;;;0.80;;
40501;SDS011;29631;49.168;9.848;2023-05-10T13:44:49;0.73;;;0.73;;
40501;SDS011;29631;49.168;9.848;2023-05-10T13:47:15;0.80;;;0.80;;
40501;SDS011;29631;49.168;9.848;2023-05-10T13:49:41;0.73;;;0.60;;
40501;SDS011;29631;49.168;9.848;2023-05-10T13:52:07;0.70;;;0.70;;
40501;SDS011;29631;49.168;9.848;2023-05-10T13:54:34;0.77;;;0.77;;
40501;SDS011;29631;49.168;9.848;2023-05-10T13:57:03;0.60;;;0.60;;
40501;SDS011;29631;49.168;9.848;2023-05-10T13:59:29;0.88;;;0.88;;
40501;SDS011;29631;49.168;9.848;2023-05-10T14:01:59;1.23;;;0.77;;
40501;SDS011;29631;49.168;9.848;2023-05-10T14:04:27;0.70;;;0.70;;
40501;SDS011;29631;49.168;9.848;2023-05-10T14:06:53;1.35;;;0.80;;
40501;SDS011;29631;49.168;9.848;2023-05-10T14:09:19;1.50;;;0.75;;
40501;SDS011;29631;49.168;9.848;2023-05-10T14:11:45;0.95;;;0.95;;
40501;SDS011;29631;49.168;9.848;2023-05-10T14:14:11;0.80;;;0.80;;
40501;SDS011;29631;49.168;9.848;2023-05-10T14:16:41;1.05;;;0.80;;
40501;SDS011;29631;49.168;9.848;2023-05-10T14:19:10;0.77;;;0.77;;
40501;SDS011;29631;49.168;9.848;2023-05-10T14:21:36;1.08;;;1.08;;
40501;SDS011;29631;49.168;9.848;2023-05-10T14:24:03;0.80;;;0.80;;
40501;SDS011;29631;49.168;9.848;2023-05-10T14:26:29;2.20;;;1.02;;
40501;SDS011;29631;49.168;9.848;2023-05-10T14:28:55;1.27;;;1.17;;
40501;SDS011;29631;49.168;9.848;2023-05-10T14:31:21;0.85;;;0.85;;
40501;SDS011;29631;49.168;9.848;2023-05-10T14:33:48;2.10;;;0.98;;
40501;SDS011;29631;49.168;9.848;2023-05-10T14:36:13;1.23;;;1.13;;
40501;SDS011;29631;49.168;9.848;2023-05-10T14:38:40;2.40;;;1.30;;
40501;SDS011;29631;49.168;9.848;2023-05-10T14:41:06;2.92;;;1.20;;
40501;SDS011;29631;49.168;9.848;2023-05-10T14:43:32;1.40;;;1.30;;
40501;SDS011;29631;49.168;9.848;2023-05-10T14:45:58;1.40;;;1.30;;
40501;SDS011;29631;49.168;9.848;2023-05-10T14:48:23;2.08;;;1.25;;
40501;SDS011;29631;49.168;9.848;2023-05-10T14:50:49;1.23;;;1.13;;
40501;SDS011;29631;49.168;9.848;2023-05-10T14:53:17;1.10;;;1.10;;
40501;SDS011;29631;49.168;9.848;2023-05-10T14:55:43;1.20;;;1.20;;
40501;SDS011;29631;49.168;9.848;2023-05-10T14:58:08;1.40;;;1.40;;
40501;SDS011;29631;49.168;9.848;2023-05-10T15:00:34;1.95;;;1.60;;
40501;SDS011;29631;49.168;9.848;2023-05-10T15:03:00;1.50;;;1.40;;
40501;SDS011;29631;49.168;9.848;2023-05-10T15:05:26;1.30;;;1.30;;
40501;SDS011;29631;49.168;9.848;2023-05-10T15:07:52;1.45;;;1.40;;
40501;SDS011;29631;49.168;9.848;2023-05-10T15:10:17;1.33;;;1.30;;
40501;SDS011;29631;49.168;9.848;2023-05-10T15:12:43;1.70;;;1.15;;
40501;SDS011;29631;49.168;9.848;2023-05-10T15:15:09;1.30;;;1.30;;
40501;SDS011;29631;49.168;9.848;2023-05-10T15:17:35;1.40;;;1.30;;
40501;SDS011;29631;49.168;9.848;2023-05-10T15:20:01;1.77;;;1.60;;
40501;SDS011;29631;49.168;9.848;2023-05-10T15:22:30;1.98;;;1.30;;
40501;SDS011;29631;49.168;9.848;2023-05-10T15:24:59;4.13;;;1.27;;
40501;SDS011;29631;49.168;9.848;2023-05-10T15:27:25;2.25;;;1.40;;
40501;SDS011;29631;49.168;9.848;2023-05-10T15:29:51;1.67;;;1.58;;
40501;SDS011;29631;49.168;9.848;2023-05-10T15:32:17;1.30;;;1.20;;
40501;SDS011;29631;49.168;9.848;2023-05-10T15:34:43;1.27;;;1.20;;
40501;SDS011;29631;49.168;9.848;2023-05-10T15:37:09;0.93;;;0.93;;
40501;SDS011;29631;49.168;9.848;2023-05-10T15:39:35;2.05;;;1.13;;
40501;SDS011;29631;49.168;9.848;2023-05-10T15:42:00;1.20;;;1.15;;